FADU weather

Walkersons Field
Mpumalanga, South Africa

Public forecast

Using degrees Celsius for public forecast. Weather courtesy of forecast.io.

Closest aviation weather report (METAR) to Walkersons Field

Closest report is Kruger Mpumalanga International Airport, 49.8 nm (92.2 km) E. Retrieved 2020/08/04 02:00 UTC (37 minutes ago):

FAKN 040200Z AUTO 28002KT //// // ////// 11/04 Q1025

Closest aviation forecast (TAF) to Walkersons Field

Forecast is more than 12 hours old.

Closest forecast is Kruger Mpumalanga International Airport, 49.8 nm (92.2 km) E. Retrieved 2017/06/05 04:55 UTC (3 years ago):

TAF FAKN 050300Z 0504/0515 25006KT CAVOK BECMG 0511/0513 13005KT SCT030 BECMG 0513/0515 07005KT TX22/0513ZTN08/0504Z